Time;durP1;ratioP1;P1;durP2;ratioP2;P2;SDS_P1;SDS_P2;PMS_P1;PMS_P2;Temp;Humidity;BMP_temperature;BMP_pressure;BME280_temperature;BME280_humidity;BME280_pressure;Samples;Min_cycle;Max_cycle;Signal;HPM_P1;HPM_P2
2022/10/20 08:17:33;;;;;;;4.23;2.20;;;16.50;99.90;;;;;;6344312;22;20213;-75
2022/10/20 08:20:00;;;;;;;6.97;2.27;;;16.50;99.90;;;;;;6335776;22;20174;-76
2022/10/20 08:22:27;;;;;;;5.60;2.30;;;16.50;99.90;;;;;;6337782;22;20173;-76
2022/10/20 08:24:54;;;;;;;5.07;2.23;;;16.40;99.90;;;;;;6336659;22;20193;-76
2022/10/20 08:27:20;;;;;;;6.33;2.30;;;16.30;99.90;;;;;;6337045;22;20180;-77
2022/10/20 08:29:47;;;;;;;3.93;2.03;;;16.40;99.90;;;;;;6338069;22;20183;-76
2022/10/20 08:32:14;;;;;;;4.37;2.20;;;16.30;99.90;;;;;;6337733;22;20637;-75
2022/10/20 08:34:42;;;;;;;7.57;2.70;;;16.20;99.90;;;;;;6338067;22;20287;-76
2022/10/20 08:37:09;;;;;;;2.93;2.10;;;16.30;99.90;;;;;;6338145;22;20180;-76
2022/10/20 08:39:36;;;;;;;4.60;2.33;;;16.20;99.90;;;;;;6338049;22;20201;-76
2022/10/20 08:42:03;;;;;;;6.57;2.20;;;16.10;99.90;;;;;;6338420;22;20224;-75
2022/10/20 08:44:33;;;;;;;4.37;2.43;;;16.00;99.90;;;;;;6337894;22;20695;-75
2022/10/20 08:47:02;;;;;;;5.30;2.53;;;16.00;99.90;;;;;;6338010;22;20633;-75
2022/10/20 08:49:31;;;;;;;5.73;2.20;;;16.00;99.90;;;;;;6335521;22;20296;-74
2022/10/20 08:52:00;;;;;;;4.67;2.93;;;15.80;99.90;;;;;;6335834;22;20174;-75
2022/10/20 08:54:27;;;;;;;6.53;2.80;;;15.90;99.90;;;;;;6334562;22;20537;-75
2022/10/20 08:56:53;;;;;;;7.43;2.93;;;16.00;99.90;;;;;;6334064;22;20181;-75
2022/10/20 08:59:28;;;;;;;9.27;3.43;;;15.90;99.90;;;;;;6333596;22;20693;-75
2022/10/20 09:01:55;;;;;;;6.93;3.07;;;15.80;99.90;;;;;;6334303;22;20648;-75
2022/10/20 09:04:26;;;;;;;4.30;2.33;;;15.70;99.90;;;;;;6333496;22;20201;-74
2022/10/20 09:06:57;;;;;;;3.40;2.60;;;15.60;99.90;;;;;;6337471;22;20187;-75
2022/10/20 09:09:29;;;;;;;8.20;3.33;;;15.60;99.90;;;;;;6337397;22;20187;-75
2022/10/20 09:12:03;;;;;;;4.63;2.83;;;15.60;99.90;;;;;;6336999;22;20177;-74
2022/10/20 09:14:34;;;;;;;3.90;2.70;;;15.40;99.90;;;;;;6337507;22;20209;-75
2022/10/20 09:17:01;;;;;;;5.60;3.00;;;15.20;99.90;;;;;;6336799;22;20548;-75
2022/10/20 09:19:29;;;;;;;4.57;2.73;;;15.20;99.90;;;;;;6335562;22;20181;-76
2022/10/20 09:21:58;;;;;;;8.03;3.40;;;15.10;99.90;;;;;;6334852;22;20260;-75
2022/10/20 09:24:28;;;;;;;5.07;3.00;;;15.10;99.90;;;;;;6335278;22;20200;-75
2022/10/20 09:26:55;;;;;;;5.57;2.70;;;15.10;99.90;;;;;;6334335;22;20238;-75
2022/10/20 09:29:34;;;;;;;9.87;3.43;;;15.00;99.90;;;;;;6334508;22;20177;-75
2022/10/20 09:32:00;;;;;;;4.47;3.10;;;15.00;99.90;;;;;;6336270;22;20173;-76
2022/10/20 09:34:32;;;;;;;8.63;3.43;;;15.10;99.90;;;;;;6337977;22;20209;-76
2022/10/20 09:37:04;;;;;;;6.83;3.30;;;15.30;99.90;;;;;;6339206;22;20173;-75
2022/10/20 09:39:41;;;;;;;5.33;3.07;;;15.20;99.90;;;;;;6338903;22;20188;-76
2022/10/20 09:42:14;;;;;;;4.80;2.97;;;15.20;99.90;;;;;;6337812;22;20173;-76
2022/10/20 09:44:49;;;;;;;7.63;3.50;;;15.20;99.90;;;;;;6336960;22;20231;-76
2022/10/20 09:47:16;;;;;;;9.17;3.10;;;15.30;99.90;;;;;;6337286;22;20180;-76
2022/10/20 09:49:45;;;;;;;5.53;3.10;;;15.30;99.90;;;;;;6337486;22;20181;-76
2022/10/20 09:52:22;;;;;;;8.53;3.17;;;15.30;99.90;;;;;;6336880;22;21066;-75
2022/10/20 09:54:51;;;;;;;5.63;3.10;;;15.40;99.90;;;;;;6336957;22;20205;-75
2022/10/20 09:57:21;;;;;;;5.67;3.70;;;15.50;99.90;;;;;;6334844;22;20173;-74
2022/10/20 09:59:50;;;;;;;9.57;4.60;;;15.60;99.90;;;;;;6336569;22;20232;-74
2022/10/20 10:02:32;;;;;;;4.93;3.30;;;15.60;99.90;;;;;;6336864;22;20564;-75
2022/10/20 10:05:19;;;;;;;6.13;3.27;;;15.70;99.90;;;;;;6336390;22;20199;-74
2022/10/20 10:07:56;;;;;;;5.03;3.37;;;15.60;99.90;;;;;;6336896;22;20284;-74
2022/10/20 10:10:27;;;;;;;8.30;3.47;;;15.60;99.90;;;;;;6338498;22;20212;-75
2022/10/20 10:12:55;;;;;;;9.33;3.40;;;15.70;99.90;;;;;;6338364;22;20181;-75
2022/10/20 10:15:29;;;;;;;7.47;4.03;;;15.80;99.90;;;;;;6338594;22;20211;-75
2022/10/20 10:17:56;;;;;;;7.87;3.70;;;16.00;99.90;;;;;;6338145;22;20188;-75
2022/10/20 10:20:32;;;;;;;6.47;4.03;;;16.10;99.90;;;;;;6337783;22;20504;-75
2022/10/20 10:23:21;;;;;;;13.47;3.93;;;16.00;99.90;;;;;;6338342;22;20179;-75
2022/10/20 10:25:50;;;;;;;8.60;4.27;;;16.20;99.90;;;;;;6338206;22;20201;-75
2022/10/20 10:28:33;;;;;;;6.93;3.60;;;16.40;99.90;;;;;;6337832;22;20177;-74
2022/10/20 10:31:21;;;;;;;5.73;3.50;;;16.60;99.90;;;;;;6338454;22;20179;-75
2022/10/20 10:33:51;;;;;;;6.80;3.47;;;17.00;99.90;;;;;;6338133;22;20177;-76
2022/10/20 10:36:28;;;;;;;5.43;3.17;;;17.30;99.90;;;;;;6337907;22;20204;-74
2022/10/20 10:38:57;;;;;;;7.80;3.10;;;17.50;99.90;;;;;;6337294;22;20172;-73
2022/10/20 10:41:40;;;;;;;6.47;3.30;;;17.60;99.90;;;;;;6338003;22;20177;-75
2022/10/20 10:44:15;;;;;;;4.80;3.38;;;17.80;99.90;;;;;;6337979;22;20179;-75
2022/10/20 10:46:58;;;;;;;9.07;4.00;;;17.70;99.90;;;;;;6336594;22;20179;-75
2022/10/20 10:49:53;;;;;;;4.33;2.60;;;17.70;99.90;;;;;;6337111;22;20176;-75
2022/10/20 10:52:41;;;;;;;4.45;2.78;;;17.80;99.90;;;;;;6303524;22;20181;-75
2022/10/20 10:55:16;;;;;;;7.07;2.50;;;17.90;99.90;;;;;;6337209;22;20205;-74
2022/10/20 10:57:56;;;;;;;6.75;2.53;;;17.90;99.90;;;;;;6337921;22;20645;-75
2022/10/20 11:00:35;;;;;;;5.25;2.60;;;18.00;99.90;;;;;;6335604;22;20180;-75
2022/10/20 11:03:16;;;;;;;7.47;2.78;;;18.10;99.90;;;;;;6337804;22;20173;-74
2022/10/20 11:06:07;;;;;;;5.13;2.42;;;18.20;99.90;;;;;;6338046;22;20197;-75
2022/10/20 11:08:52;;;;;;;5.05;2.92;;;18.30;99.90;;;;;;6329574;22;20174;-76
2022/10/20 11:11:32;;;;;;;4.93;2.35;;;18.30;99.90;;;;;;6338019;22;20173;-75
2022/10/20 11:14:15;;;;;;;6.55;3.30;;;18.40;99.90;;;;;;6337213;22;20656;-75
2022/10/20 11:16:50;;;;;;;5.00;2.95;;;18.50;99.90;;;;;;6337965;22;20177;-75
2022/10/20 11:19:36;;;;;;;5.90;3.20;;;18.80;99.90;;;;;;6337590;22;20177;-76
2022/10/20 11:22:14;;;;;;;7.25;2.72;;;18.80;99.90;;;;;;6337277;22;20648;-75
2022/10/20 11:24:49;;;;;;;9.02;5.32;;;18.70;99.90;;;;;;6338181;22;20203;-75
2022/10/20 11:27:18;;;;;;;6.03;2.33;;;18.80;99.90;;;;;;6337616;22;20173;-74
2022/10/20 11:29:49;;;;;;;5.60;3.28;;;19.00;99.90;;;;;;6337842;22;20177;-75
2022/10/20 11:32:26;;;;;;;7.50;3.13;;;19.20;99.90;;;;;;6338068;22;20177;-75
2022/10/20 11:35:01;;;;;;;5.85;3.20;;;19.30;99.90;;;;;;6337440;22;20208;-76
2022/10/20 11:37:30;;;;;;;4.93;3.20;;;19.30;99.90;;;;;;6337704;22;20176;-73
2022/10/20 11:40:04;;;;;;;8.38;3.45;;;19.20;99.90;;;;;;6337631;22;20180;-73
2022/10/20 11:42:40;;;;;;;5.38;2.50;;;19.00;99.90;;;;;;6337850;22;20251;-74
2022/10/20 11:45:26;;;;;;;5.50;2.80;;;18.90;99.90;;;;;;6337937;22;20203;-74
2022/10/20 11:48:00;;;;;;;5.07;3.38;;;18.80;99.90;;;;;;6337891;22;20173;-76
2022/10/20 11:50:27;;;;;;;4.88;2.88;;;18.90;99.90;;;;;;6337930;22;20177;-73
2022/10/20 11:53:17;;;;;;;2.92;2.33;;;19.00;99.90;;;;;;6337933;22;20177;-75
2022/10/20 11:56:05;;;;;;;6.70;3.33;;;19.00;99.90;;;;;;6336129;22;20208;-76
2022/10/20 11:58:52;;;;;;;3.45;2.35;;;19.00;99.90;;;;;;6337595;22;20177;-76
2022/10/20 12:01:31;;;;;;;4.57;2.28;;;19.00;99.90;;;;;;6338094;22;20654;-78
2022/10/20 12:04:24;;;;;;;3.58;2.20;;;19.00;99.90;;;;;;6338453;22;20184;-77
2022/10/20 12:07:23;;;;;;;4.18;2.08;;;18.90;99.90;;;;;;6338711;22;20172;-76
2022/10/20 12:10:02;;;;;;;6.75;3.33;;;19.00;99.90;;;;;;6324803;22;20256;-76
2022/10/20 12:12:36;;;;;;;5.50;2.90;;;19.10;99.90;;;;;;6337746;22;20176;-77
2022/10/20 12:15:19;;;;;;;6.00;2.50;;;19.20;99.90;;;;;;6338107;22;20231;-76
2022/10/20 12:17:48;;;;;;;3.75;1.85;;;19.20;99.90;;;;;;6337199;22;20189;-74
2022/10/20 12:21:00;;;;;;;3.42;1.80;;;19.20;99.90;;;;;;6336838;22;20181;-76
2022/10/20 12:23:56;;;;;;;2.30;1.67;;;19.30;99.90;;;;;;6338009;22;20185;-76
2022/10/20 12:27:08;;;;;;;3.50;2.10;;;19.50;99.90;;;;;;6340293;22;20183;-76
2022/10/20 12:29:53;;;;;;;3.80;1.40;;;19.60;99.90;;;;;;6340189;22;20180;-77
2022/10/20 12:32:50;;;;;;;3.97;1.55;;;19.70;99.90;;;;;;6339520;22;20724;-75
2022/10/20 12:35:30;;;;;;;3.40;1.40;;;19.80;99.90;;;;;;6338816;22;20660;-76
2022/10/20 12:38:00;;;;;;;2.85;1.45;;;19.90;99.90;;;;;;6340184;22;20252;-75
2022/10/20 12:40:31;;;;;;;4.85;1.63;;;19.80;99.90;;;;;;6338762;22;20496;-75
2022/10/20 12:42:59;;;;;;;4.88;1.30;;;19.80;99.90;;;;;;6340036;22;20177;-74
2022/10/20 12:45:39;;;;;;;4.10;1.60;;;19.80;99.90;;;;;;6339618;22;20196;-75
2022/10/20 12:48:08;;;;;;;3.08;1.30;;;19.80;99.90;;;;;;6340287;22;20180;-75
2022/10/20 12:50:39;;;;;;;3.08;1.50;;;19.80;99.90;;;;;;6340346;22;20196;-74
2022/10/20 12:53:13;;;;;;;3.58;1.35;;;19.70;99.90;;;;;;6339780;22;20173;-76
2022/10/20 12:55:41;;;;;;;1.50;1.20;;;19.80;99.90;;;;;;6339489;22;20212;-76
2022/10/20 12:58:30;;;;;;;2.15;1.05;;;19.90;99.90;;;;;;6339548;22;20173;-75
2022/10/20 13:01:07;;;;;;;2.85;1.10;;;19.90;99.90;;;;;;6339314;22;20179;-73
2022/10/20 13:03:41;;;;;;;2.15;1.15;;;20.00;99.90;;;;;;6339890;22;20173;-76
2022/10/20 13:06:43;;;;;;;2.53;1.05;;;20.00;99.90;;;;;;6339686;22;20193;-76
2022/10/20 13:09:21;;;;;;;1.10;0.70;;;20.00;99.90;;;;;;6331476;22;20173;-73
2022/10/20 13:11:57;;;;;;;3.28;1.20;;;20.00;99.90;;;;;;6340328;22;20219;-74
2022/10/20 13:14:54;;;;;;;2.15;0.90;;;19.90;99.90;;;;;;6340205;22;20286;-73
2022/10/20 13:17:34;;;;;;;3.80;1.10;;;19.90;99.90;;;;;;6339976;22;20185;-75
2022/10/20 13:20:05;;;;;;;1.75;1.00;;;19.90;99.90;;;;;;6340177;22;20173;-74
2022/10/20 13:22:38;;;;;;;3.10;1.13;;;20.10;99.90;;;;;;6339649;22;20705;-74
2022/10/20 13:25:12;;;;;;;1.38;0.90;;;20.10;99.90;;;;;;6340095;22;20193;-73
2022/10/20 13:27:40;;;;;;;1.35;0.70;;;20.00;99.90;;;;;;6339856;22;20179;-73
2022/10/20 13:30:09;;;;;;;4.88;0.82;;;20.00;99.90;;;;;;6340020;22;20173;-73
2022/10/20 13:32:42;;;;;;;2.65;1.42;;;20.20;99.90;;;;;;6340217;22;20185;-73
2022/10/20 13:35:22;;;;;;;1.45;0.90;;;20.30;99.90;;;;;;6339862;22;20193;-73
2022/10/20 13:37:58;;;;;;;0.98;0.82;;;20.50;99.90;;;;;;6339793;22;20169;-74
2022/10/20 13:40:33;;;;;;;2.88;0.70;;;20.50;99.90;;;;;;6340066;22;20173;-74
2022/10/20 13:43:12;;;;;;;2.33;0.82;;;20.60;99.90;;;;;;6340168;22;20564;-73
2022/10/20 13:45:57;;;;;;;2.65;0.80;;;20.70;99.90;;;;;;6339607;22;20197;-73
2022/10/20 13:48:40;;;;;;;3.05;1.08;;;20.70;99.90;;;;;;6340122;22;20177;-73
2022/10/20 13:51:14;;;;;;;3.55;0.80;;;20.60;99.90;;;;;;6339426;22;20501;-73
2022/10/20 13:53:45;;;;;;;3.67;0.82;;;20.50;99.90;;;;;;6339508;22;20229;-74
2022/10/20 13:56:21;;;;;;;2.13;1.10;;;20.60;99.90;;;;;;6338859;22;20208;-72
2022/10/20 13:58:58;;;;;;;2.67;0.90;;;20.70;99.90;;;;;;6338907;22;20208;-71
2022/10/20 14:01:26;;;;;;;1.60;0.98;;;20.90;99.90;;;;;;6339020;22;20177;-73
2022/10/20 14:03:52;;;;;;;0.85;0.70;;;20.90;99.90;;;;;;6339216;22;20196;-72
2022/10/20 14:06:34;;;;;;;1.63;0.93;;;20.90;99.90;;;;;;6339322;22;20180;-73
2022/10/20 14:09:14;;;;;;;1.02;0.80;;;20.90;99.90;;;;;;6338155;22;20196;-72
2022/10/20 14:11:41;;;;;;;4.80;1.00;;;20.90;99.90;;;;;;6337481;22;20179;-72
2022/10/20 14:14:15;;;;;;;1.80;0.95;;;20.90;99.90;;;;;;6336723;22;20187;-72
2022/10/20 14:16:50;;;;;;;1.75;0.70;;;20.80;99.90;;;;;;6337906;22;20224;-72
2022/10/20 14:19:20;;;;;;;4.63;1.23;;;20.80;99.90;;;;;;6338039;22;20183;-72
2022/10/20 14:21:49;;;;;;;1.75;1.00;;;20.70;99.90;;;;;;6337905;22;20184;-72
2022/10/20 14:24:25;;;;;;;3.05;0.80;;;20.70;99.90;;;;;;6339080;22;20255;-71
2022/10/20 14:26:52;;;;;;;0.93;0.70;;;20.50;99.90;;;;;;6338820;22;20177;-72
2022/10/20 14:29:21;;;;;;;2.33;0.98;;;20.50;99.90;;;;;;6339219;22;20179;-72
2022/10/20 14:31:48;;;;;;;2.22;1.10;;;20.40;99.90;;;;;;6335678;22;20267;-71
2022/10/20 14:34:19;;;;;;;2.05;1.00;;;20.30;99.90;;;;;;6334569;22;20197;-72
2022/10/20 14:36:47;;;;;;;2.40;1.23;;;20.30;99.90;;;;;;6334259;22;20529;-69
2022/10/20 14:39:30;;;;;;;2.03;1.25;;;20.50;99.90;;;;;;6336582;22;20177;-71
2022/10/20 14:41:59;;;;;;;1.50;0.98;;;20.50;99.90;;;;;;6337568;22;20209;-70
2022/10/20 14:44:27;;;;;;;1.33;0.80;;;20.50;99.90;;;;;;6338211;22;20522;-68
2022/10/20 14:46:57;;;;;;;1.95;0.90;;;20.50;99.90;;;;;;6338871;22;20173;-67
2022/10/20 14:49:27;;;;;;;3.42;1.50;;;20.30;99.90;;;;;;6339135;22;20184;-68
2022/10/20 14:51:56;;;;;;;2.45;1.20;;;20.30;99.90;;;;;;6338946;22;20177;-68
2022/10/20 14:54:35;;;;;;;1.90;1.30;;;20.30;99.90;;;;;;6338523;22;20196;-67
2022/10/20 14:57:17;;;;;;;1.20;0.68;;;20.40;99.90;;;;;;6338863;22;20204;-69
2022/10/20 14:59:52;;;;;;;2.25;0.80;;;20.30;99.90;;;;;;6337393;22;20173;-68
2022/10/20 15:02:22;;;;;;;3.85;0.90;;;20.40;99.90;;;;;;6338972;22;20230;-68
2022/10/20 15:04:50;;;;;;;1.00;0.70;;;20.50;99.90;;;;;;6339074;22;20215;-67
2022/10/20 15:07:21;;;;;;;4.65;1.35;;;20.60;99.90;;;;;;6338706;22;20633;-67
2022/10/20 15:09:51;;;;;;;2.95;0.98;;;20.60;99.90;;;;;;6339324;22;20260;-69
2022/10/20 15:12:20;;;;;;;3.13;1.30;;;20.70;99.90;;;;;;6338673;22;20177;-67
2022/10/20 15:14:50;;;;;;;1.67;0.90;;;20.70;99.90;;;;;;6338982;22;20226;-68
2022/10/20 15:17:35;;;;;;;1.85;0.88;;;20.70;99.90;;;;;;6338207;22;20205;-67
2022/10/20 15:20:34;;;;;;;1.50;0.85;;;20.80;99.90;;;;;;6338578;22;20173;-68
2022/10/20 15:23:02;;;;;;;2.95;1.05;;;20.80;99.90;;;;;;6338591;22;20251;-67
2022/10/20 15:25:33;;;;;;;6.10;1.05;;;20.90;99.90;;;;;;6338643;22;20192;-68
2022/10/20 15:28:00;;;;;;;1.40;0.85;;;21.00;99.90;;;;;;6339030;22;20173;-67
2022/10/20 15:30:27;;;;;;;3.13;1.30;;;20.90;99.90;;;;;;6338723;22;20708;-68
2022/10/20 15:32:54;;;;;;;2.45;1.08;;;21.00;99.90;;;;;;6338779;22;20256;-67
2022/10/20 15:35:23;;;;;;;1.83;0.90;;;20.90;99.90;;;;;;6338473;22;20578;-67
2022/10/20 15:37:51;;;;;;;2.05;1.25;;;20.80;99.90;;;;;;6338875;22;20205;-67
2022/10/20 15:40:19;;;;;;;1.13;0.88;;;20.80;99.90;;;;;;6338958;22;20238;-67
2022/10/20 15:42:47;;;;;;;1.92;0.95;;;20.80;99.90;;;;;;6339054;22;20173;-67
2022/10/20 15:45:16;;;;;;;1.60;0.80;;;20.80;99.90;;;;;;6338527;22;20205;-67
2022/10/20 15:47:43;;;;;;;2.13;1.17;;;20.70;99.90;;;;;;6339150;22;20280;-67
2022/10/20 15:50:10;;;;;;;2.40;1.08;;;20.60;99.90;;;;;;6338357;22;20624;-67
2022/10/20 15:52:38;;;;;;;4.32;0.95;;;20.60;99.90;;;;;;6338805;22;20181;-67
2022/10/20 15:55:21;;;;;;;3.25;1.00;;;20.50;99.90;;;;;;6338782;22;20283;-67
2022/10/20 15:57:50;;;;;;;2.63;1.13;;;20.50;99.90;;;;;;6338317;22;20292;-67
2022/10/20 16:00:18;;;;;;;4.90;1.20;;;20.30;99.90;;;;;;6338665;22;20178;-67
2022/10/20 16:02:45;;;;;;;3.83;1.23;;;20.30;99.90;;;;;;6338530;22;20493;-67
2022/10/20 16:05:12;;;;;;;2.72;1.33;;;20.20;99.90;;;;;;6338896;22;20197;-67
2022/10/20 16:07:39;;;;;;;2.53;1.10;;;20.20;99.90;;;;;;6338084;22;20179;-67
2022/10/20 16:10:08;;;;;;;0.88;0.80;;;20.20;99.90;;;;;;6336008;22;20231;-67
2022/10/20 16:12:35;;;;;;;3.55;0.85;;;20.20;99.90;;;;;;6337400;22;20180;-67
2022/10/20 16:15:04;;;;;;;4.05;1.20;;;20.10;99.90;;;;;;6337510;22;20271;-67
2022/10/20 16:17:31;;;;;;;1.33;0.93;;;20.10;99.90;;;;;;6337404;22;20668;-67
2022/10/20 16:19:58;;;;;;;1.35;1.13;;;20.10;99.90;;;;;;6335501;22;20641;-68
2022/10/20 16:22:25;;;;;;;1.35;1.05;;;20.00;99.90;;;;;;6337049;22;20252;-67
2022/10/20 16:24:52;;;;;;;1.45;1.00;;;19.90;99.90;;;;;;6337900;22;20588;-67
2022/10/20 16:27:19;;;;;;;3.10;1.20;;;19.90;99.90;;;;;;6338315;22;20177;-69
2022/10/20 16:29:46;;;;;;;5.25;1.25;;;19.80;99.90;;;;;;6337913;22;20263;-67
2022/10/20 16:32:14;;;;;;;4.10;1.20;;;19.70;99.90;;;;;;6338484;22;20181;-67
2022/10/20 16:34:41;;;;;;;3.85;1.23;;;19.70;99.90;;;;;;6338532;22;20193;-68
2022/10/20 16:37:08;;;;;;;1.92;1.20;;;19.70;99.90;;;;;;6338415;22;20284;-70
2022/10/20 16:39:34;;;;;;;3.08;1.30;;;19.70;99.90;;;;;;6338423;22;20180;-67
2022/10/20 16:42:01;;;;;;;1.65;1.05;;;19.60;99.90;;;;;;6338662;22;20180;-67
2022/10/20 16:44:29;;;;;;;4.70;1.23;;;19.50;99.90;;;;;;6337908;22;20197;-72
2022/10/20 16:46:56;;;;;;;3.47;1.50;;;19.50;99.90;;;;;;6338937;22;20552;-67
2022/10/20 16:49:25;;;;;;;4.28;1.17;;;19.30;99.90;;;;;;6338064;22;20260;-68
2022/10/20 16:51:52;;;;;;;4.28;1.50;;;19.30;99.90;;;;;;6338731;22;20180;-68
2022/10/20 16:54:19;;;;;;;2.95;1.27;;;19.30;99.90;;;;;;6338154;22;20193;-69
2022/10/20 16:56:45;;;;;;;1.55;1.02;;;19.30;99.90;;;;;;6338382;22;20208;-71
2022/10/20 16:59:12;;;;;;;3.58;1.30;;;19.20;99.90;;;;;;6310775;22;20173;-70
2022/10/20 17:01:39;;;;;;;2.67;1.30;;;19.10;99.90;;;;;;6338357;22;20256;-69
2022/10/20 17:04:06;;;;;;;3.28;1.45;;;19.00;99.90;;;;;;6337749;22;20256;-69
2022/10/20 17:06:34;;;;;;;3.95;1.55;;;18.90;99.90;;;;;;6338018;22;20177;-67
2022/10/20 17:09:01;;;;;;;3.67;1.48;;;18.90;99.90;;;;;;6338475;22;20252;-67
2022/10/20 17:11:30;;;;;;;3.83;1.17;;;18.80;99.90;;;;;;6340039;22;20177;-69
2022/10/20 17:13:58;;;;;;;5.85;1.25;;;18.60;99.90;;;;;;6340170;22;20252;-70
2022/10/20 17:16:26;;;;;;;5.82;0.90;;;18.60;99.90;;;;;;6340146;22;20203;-72
2022/10/20 17:18:54;;;;;;;4.57;1.30;;;18.50;99.90;;;;;;6339473;22;20239;-68
2022/10/20 17:21:21;;;;;;;2.75;1.23;;;18.40;99.90;;;;;;6340029;22;20180;-72
2022/10/20 17:23:49;;;;;;;2.95;1.60;;;18.40;99.90;;;;;;6339775;22;20183;-68
2022/10/20 17:26:18;;;;;;;3.95;0.85;;;18.40;99.90;;;;;;6340031;22;20260;-71
2022/10/20 17:28:45;;;;;;;2.92;0.98;;;18.40;99.90;;;;;;6340220;22;20195;-67
2022/10/20 17:31:14;;;;;;;2.05;1.50;;;18.30;99.90;;;;;;6339950;22;20200;-72
2022/10/20 17:33:42;;;;;;;4.65;1.25;;;18.20;99.90;;;;;;6339587;22;20173;-73
2022/10/20 17:36:11;;;;;;;2.42;1.25;;;18.20;99.90;;;;;;6339026;22;20193;-72
2022/10/20 17:38:38;;;;;;;3.35;1.27;;;18.30;99.90;;;;;;6338353;22;20343;-73
2022/10/20 17:41:08;;;;;;;5.32;1.30;;;18.20;99.90;;;;;;6339239;22;20180;-72
2022/10/20 17:43:35;;;;;;;3.67;1.13;;;18.30;99.90;;;;;;6339535;22;20253;-68
2022/10/20 17:46:05;;;;;;;4.70;1.27;;;18.30;99.90;;;;;;6338851;22;20204;-70
2022/10/20 17:48:31;;;;;;;2.50;1.17;;;18.30;99.90;;;;;;6339550;22;20177;-72
2022/10/20 17:50:59;;;;;;;4.18;1.38;;;18.30;99.90;;;;;;6339506;22;20173;-70
2022/10/20 17:53:26;;;;;;;2.67;1.40;;;18.50;99.90;;;;;;6339450;22;20185;-74
2022/10/20 17:55:53;;;;;;;2.58;1.42;;;18.50;99.90;;;;;;6339468;22;20272;-73
2022/10/20 17:58:21;;;;;;;4.05;1.25;;;18.50;99.90;;;;;;6338740;22;20227;-68
2022/10/20 18:00:48;;;;;;;2.10;1.17;;;18.40;99.90;;;;;;6338851;22;20173;-72
2022/10/20 18:03:14;;;;;;;1.95;1.40;;;18.50;99.90;;;;;;6339262;22;20176;-68
2022/10/20 18:05:41;;;;;;;2.80;1.35;;;18.50;99.90;;;;;;6338919;22;20193;-71
2022/10/20 18:08:08;;;;;;;2.03;1.63;;;18.50;99.90;;;;;;6338521;22;20177;-68
2022/10/20 18:10:35;;;;;;;4.35;1.38;;;18.50;99.90;;;;;;6339160;22;20174;-72
2022/10/20 18:13:02;;;;;;;2.38;1.40;;;18.50;99.90;;;;;;6338661;22;20260;-73
2022/10/20 18:15:30;;;;;;;3.92;1.30;;;18.50;99.90;;;;;;6338851;22;20197;-71
2022/10/20 18:17:56;;;;;;;4.40;1.70;;;18.50;99.90;;;;;;6338838;22;20280;-70
2022/10/20 18:20:23;;;;;;;4.55;1.88;;;18.50;99.90;;;;;;6337547;22;20622;-74
2022/10/20 18:22:50;;;;;;;5.75;1.60;;;18.50;99.90;;;;;;6338449;22;20256;-72
2022/10/20 18:25:17;;;;;;;5.20;1.90;;;18.40;99.90;;;;;;6339010;22;20200;-70
2022/10/20 18:27:44;;;;;;;3.85;1.80;;;18.40;99.90;;;;;;6339379;22;20181;-69
2022/10/20 18:30:11;;;;;;;6.82;1.55;;;18.50;99.90;;;;;;6339452;22;20184;-69
2022/10/20 18:32:39;;;;;;;3.78;1.38;;;18.50;99.90;;;;;;6339429;22;20180;-69
2022/10/20 18:35:06;;;;;;;2.22;1.40;;;18.40;99.90;;;;;;6338857;22;20487;-68
2022/10/20 18:37:33;;;;;;;4.18;1.27;;;18.30;99.90;;;;;;6338958;22;20204;-69
2022/10/20 18:40:01;;;;;;;2.22;1.30;;;18.20;99.90;;;;;;6338854;22;20272;-71
2022/10/20 18:42:28;;;;;;;4.90;1.38;;;18.20;99.90;;;;;;6339606;22;20173;-70
2022/10/20 18:44:55;;;;;;;6.80;1.98;;;18.20;99.90;;;;;;6339064;22;20280;-68
2022/10/20 18:47:22;;;;;;;3.55;1.60;;;18.20;99.90;;;;;;6339224;22;20173;-69
2022/10/20 18:49:50;;;;;;;3.95;1.80;;;18.20;99.90;;;;;;6339123;22;20173;-70
2022/10/20 18:52:16;;;;;;;5.78;1.63;;;18.20;99.90;;;;;;6339630;22;20539;-73
2022/10/20 18:54:43;;;;;;;5.18;2.00;;;18.10;99.90;;;;;;6339092;22;20193;-68
2022/10/20 18:57:10;;;;;;;3.83;1.80;;;18.10;99.90;;;;;;6339234;22;20212;-70
2022/10/20 18:59:37;;;;;;;4.82;1.60;;;18.00;99.90;;;;;;6339217;22;20183;-68
2022/10/20 19:02:04;;;;;;;5.22;1.63;;;17.90;99.90;;;;;;6339117;22;20180;-70
2022/10/20 19:04:30;;;;;;;1.77;1.33;;;17.80;99.90;;;;;;6338905;22;20193;-73
2022/10/20 19:06:58;;;;;;;5.28;1.63;;;17.80;99.90;;;;;;6338785;22;20898;-71
2022/10/20 19:09:25;;;;;;;2.53;1.50;;;17.80;99.90;;;;;;6338655;22;20517;-71
2022/10/20 19:11:54;;;;;;;2.25;1.60;;;17.70;99.90;;;;;;6338834;22;20173;-69
2022/10/20 19:14:20;;;;;;;4.47;2.25;;;17.70;99.90;;;;;;6338189;22;20276;-70
2022/10/20 19:16:48;;;;;;;4.50;1.45;;;17.50;99.90;;;;;;6338500;22;20630;-69
2022/10/20 19:19:15;;;;;;;5.78;1.58;;;17.50;99.90;;;;;;6338804;22;20626;-69
2022/10/20 19:21:42;;;;;;;3.38;1.85;;;17.50;99.90;;;;;;6338949;22;20626;-71
2022/10/20 19:24:15;;;;;;;2.42;1.45;;;17.60;99.90;;;;;;6338688;22;20196;-73
2022/10/20 19:26:43;;;;;;;4.85;2.17;;;17.60;99.90;;;;;;6338269;22;20177;-72
2022/10/20 19:29:12;;;;;;;3.70;1.85;;;17.70;99.90;;;;;;6339216;22;20173;-72
2022/10/20 19:31:41;;;;;;;5.22;1.60;;;17.70;99.90;;;;;;6338908;22;20212;-68
2022/10/20 19:34:10;;;;;;;3.60;1.92;;;17.70;99.90;;;;;;6338616;22;20173;-70
2022/10/20 19:36:36;;;;;;;6.37;2.07;;;17.70;99.90;;;;;;6339046;22;20173;-71
2022/10/20 19:39:06;;;;;;;7.00;2.00;;;17.70;99.90;;;;;;6339073;22;20204;-70
2022/10/20 19:41:34;;;;;;;5.20;1.80;;;17.70;99.90;;;;;;6338902;22;20173;-71
2022/10/20 19:44:02;;;;;;;8.23;2.20;;;17.70;99.90;;;;;;6338465;22;20543;-70
2022/10/20 19:46:29;;;;;;;6.93;2.00;;;17.60;99.90;;;;;;6339573;22;20471;-74
2022/10/20 19:48:56;;;;;;;3.28;1.60;;;17.70;99.90;;;;;;6338465;22;20222;-72
2022/10/20 19:51:23;;;;;;;3.50;1.75;;;17.60;99.90;;;;;;6339039;22;20173;-71
2022/10/20 19:53:50;;;;;;;4.63;1.90;;;17.70;99.90;;;;;;6338972;22;20181;-69
2022/10/20 19:56:17;;;;;;;3.85;2.13;;;17.80;99.90;;;;;;6338867;22;20252;-73
2022/10/20 19:58:47;;;;;;;3.95;2.05;;;17.90;99.90;;;;;;6338034;22;20673;-72
2022/10/20 20:01:14;;;;;;;3.13;1.95;;;17.80;99.90;;;;;;6338529;22;20208;-72
2022/10/20 20:03:41;;;;;;;4.57;1.83;;;17.90;99.90;;;;;;6339012;22;20177;-74
2022/10/20 20:06:11;;;;;;;4.75;2.40;;;18.00;99.90;;;;;;6338984;22;20199;-72
2022/10/20 20:08:38;;;;;;;5.20;2.10;;;18.00;99.90;;;;;;6338754;22;20259;-73
2022/10/20 20:11:05;;;;;;;2.70;1.70;;;18.00;99.90;;;;;;6338722;22;20179;-74
2022/10/20 20:13:33;;;;;;;6.28;1.88;;;18.00;99.90;;;;;;6338882;22;20621;-71
2022/10/20 20:16:06;;;;;;;3.92;2.53;;;18.00;99.90;;;;;;6338476;22;20197;-68
2022/10/20 20:18:33;;;;;;;6.50;2.85;;;18.00;99.90;;;;;;6338139;22;20211;-69
2022/10/20 20:21:03;;;;;;;3.30;1.90;;;18.00;99.90;;;;;;6338251;22;20261;-68
2022/10/20 20:23:30;;;;;;;3.92;1.90;;;18.10;99.90;;;;;;6338731;22;20633;-69
2022/10/20 20:26:02;;;;;;;3.78;2.05;;;18.00;99.90;;;;;;6338493;22;20197;-70
2022/10/20 20:28:29;;;;;;;6.55;2.30;;;18.00;99.90;;;;;;6338462;22;20179;-68
2022/10/20 20:30:59;;;;;;;6.88;2.10;;;18.00;99.90;;;;;;6338176;22;20178;-69
2022/10/20 20:33:28;;;;;;;4.70;1.85;;;18.00;99.90;;;;;;6338830;22;20177;-72
2022/10/20 20:35:58;;;;;;;4.70;2.15;;;17.90;99.90;;;;;;6338555;22;20220;-68
2022/10/20 20:38:25;;;;;;;7.63;2.83;;;17.90;99.90;;;;;;6338105;22;20681;-68
2022/10/20 20:40:53;;;;;;;3.60;2.00;;;18.00;99.90;;;;;;6338207;22;20177;-69
2022/10/20 20:43:19;;;;;;;5.68;2.20;;;18.00;99.90;;;;;;6338608;22;20181;-69
2022/10/20 20:45:46;;;;;;;6.03;2.05;;;18.00;99.90;;;;;;6339807;22;20197;-68
2022/10/20 20:48:13;;;;;;;7.53;2.75;;;18.00;99.90;;;;;;6340471;22;20260;-69
2022/10/20 20:50:41;;;;;;;6.03;2.50;;;18.00;99.90;;;;;;6339705;22;20625;-69
2022/10/20 20:53:08;;;;;;;8.82;2.50;;;18.00;99.90;;;;;;6340145;22;20638;-68
2022/10/20 20:55:35;;;;;;;4.65;2.45;;;18.00;99.90;;;;;;6340251;22;20193;-69
2022/10/20 20:58:01;;;;;;;5.88;2.13;;;17.90;99.90;;;;;;6340498;22;20205;-68
2022/10/20 21:00:28;;;;;;;4.30;2.28;;;18.00;99.90;;;;;;6340125;22;20488;-69
2022/10/20 21:02:55;;;;;;;5.45;2.50;;;18.10;99.90;;;;;;6340257;22;20173;-68
2022/10/20 21:05:22;;;;;;;5.55;2.25;;;18.10;99.90;;;;;;6340073;22;20193;-68
2022/10/20 21:07:50;;;;;;;3.95;2.13;;;18.10;99.90;;;;;;6340340;22;20599;-68
2022/10/20 21:10:17;;;;;;;5.60;2.00;;;18.10;99.90;;;;;;6340383;22;20174;-70
2022/10/20 21:12:44;;;;;;;3.83;1.90;;;18.10;99.90;;;;;;6339825;22;20252;-68
2022/10/20 21:15:11;;;;;;;5.22;2.17;;;18.20;99.90;;;;;;6340251;22;20203;-68
2022/10/20 21:17:37;;;;;;;8.57;2.40;;;18.20;99.90;;;;;;6339978;22;20201;-69
2022/10/20 21:20:05;;;;;;;3.17;2.00;;;18.20;99.90;;;;;;6340092;22;20177;-69
2022/10/20 21:22:32;;;;;;;4.30;1.90;;;18.10;99.90;;;;;;6339790;22;20625;-68
2022/10/20 21:25:00;;;;;;;3.67;2.15;;;18.10;99.90;;;;;;6339774;22;20197;-68
2022/10/20 21:27:27;;;;;;;5.35;2.17;;;18.00;99.90;;;;;;6340052;22;20623;-68